createdAt,value
2018-03-24T00:01:04.332Z,23.75
2018-03-24T00:03:31.040Z,21.98
2018-03-24T00:05:57.719Z,24.20
2018-03-24T00:08:24.408Z,22.15
2018-03-24T00:10:51.089Z,21.67
2018-03-24T00:13:17.770Z,22.85
2018-03-24T00:15:44.504Z,22.45
2018-03-24T00:18:11.189Z,23.52
2018-03-24T00:20:37.882Z,23.12
2018-03-24T00:23:04.565Z,25.12
2018-03-24T00:25:31.273Z,22.77
2018-03-24T00:27:57.980Z,23.25
2018-03-24T00:30:24.663Z,22.90
2018-03-24T00:32:51.346Z,22.55
2018-03-24T00:35:18.047Z,21.20
2018-03-24T00:37:44.733Z,22.98
2018-03-24T00:40:11.437Z,22.62
2018-03-24T00:42:38.120Z,24.00
2018-03-24T00:45:04.796Z,23.55
2018-03-24T00:47:31.476Z,24.52
2018-03-24T00:49:58.184Z,22.60
2018-03-24T00:52:24.880Z,25.05
2018-03-24T00:54:51.552Z,23.73
2018-03-24T00:57:18.253Z,23.38
2018-03-24T00:59:44.932Z,24.20
2018-03-24T01:02:11.604Z,23.98
2018-03-24T01:04:38.284Z,24.33
2018-03-24T01:07:04.962Z,23.48
2018-03-24T01:09:31.656Z,23.45
2018-03-24T01:11:58.339Z,24.02
2018-03-24T01:14:25.050Z,24.63
2018-03-24T01:16:51.726Z,26.08
2018-03-24T01:19:18.409Z,23.83
2018-03-24T01:21:45.092Z,25.40
2018-03-24T01:24:11.774Z,24.20
2018-03-24T01:26:38.489Z,23.67
2018-03-24T01:29:05.208Z,23.77
2018-03-24T01:31:31.893Z,24.10
2018-03-24T01:33:58.573Z,25.77
2018-03-24T01:36:25.260Z,24.08
2018-03-24T01:38:51.960Z,25.70
2018-03-24T01:41:18.653Z,22.58
2018-03-24T01:43:45.344Z,25.58
2018-03-24T01:46:12.025Z,27.20
2018-03-24T01:48:38.738Z,24.73
2018-03-24T01:51:05.432Z,24.33
2018-03-24T01:53:37.948Z,23.52
2018-03-24T01:56:04.645Z,23.73
2018-03-24T01:58:31.336Z,25.37
2018-03-24T02:00:58.012Z,24.83
2018-03-24T02:03:24.689Z,24.50
2018-03-24T02:05:51.402Z,26.40
2018-03-24T02:08:18.104Z,25.33
2018-03-24T02:10:44.794Z,23.02
2018-03-24T02:13:11.482Z,25.17
2018-03-24T02:15:38.209Z,23.77
2018-03-24T02:18:04.944Z,23.95
2018-03-24T02:20:31.621Z,24.92
2018-03-24T02:22:58.305Z,27.00
2018-03-24T02:25:24.990Z,26.87
2018-03-24T02:27:51.679Z,25.10
2018-03-24T02:30:18.370Z,25.02
2018-03-24T02:32:45.048Z,26.80
2018-03-24T02:35:11.770Z,26.55
2018-03-24T02:37:38.464Z,27.85
2018-03-24T02:40:05.149Z,26.33
2018-03-24T02:42:31.845Z,28.45
2018-03-24T02:44:58.537Z,26.45
2018-03-24T02:47:25.223Z,27.98
2018-03-24T02:49:51.900Z,28.20
2018-03-24T02:52:18.602Z,27.02
2018-03-24T02:54:45.300Z,27.45
2018-03-24T02:57:11.976Z,28.77
2018-03-24T02:59:38.665Z,26.58
2018-03-24T03:02:05.356Z,26.65
2018-03-24T03:04:32.048Z,26.65
2018-03-24T03:06:58.774Z,27.98
2018-03-24T03:09:25.452Z,29.20
2018-03-24T03:11:52.140Z,28.33
2018-03-24T03:14:18.816Z,27.60
2018-03-24T03:16:45.493Z,27.92
2018-03-24T03:19:12.334Z,25.83
2018-03-24T03:21:44.726Z,26.12
2018-03-24T03:24:11.436Z,29.27
2018-03-24T03:26:38.133Z,27.83
2018-03-24T03:29:04.840Z,28.60
2018-03-24T03:31:31.571Z,29.30
2018-03-24T03:33:58.260Z,28.73
2018-03-24T03:36:24.969Z,27.50
2018-03-24T03:38:51.659Z,29.30
2018-03-24T03:41:18.331Z,27.95
2018-03-24T03:43:45.009Z,30.60
2018-03-24T03:46:11.693Z,33.13
2018-03-24T03:48:38.384Z,28.95
2018-03-24T03:51:05.078Z,29.45
2018-03-24T03:53:31.773Z,28.42
2018-03-24T03:55:58.456Z,28.15
2018-03-24T03:58:25.164Z,29.00
2018-03-24T04:00:51.854Z,29.85
2018-03-24T04:03:18.560Z,30.65
2018-03-24T04:05:45.256Z,29.40
2018-03-24T04:08:11.941Z,30.92
2018-03-24T04:10:38.653Z,31.92
2018-03-24T04:13:05.332Z,28.55
2018-03-24T04:15:32.017Z,28.08
2018-03-24T04:17:58.699Z,31.00
2018-03-24T04:20:25.390Z,30.40
2018-03-24T04:22:52.210Z,28.67
2018-03-24T04:25:18.893Z,30.80
2018-03-24T04:27:45.607Z,30.15
2018-03-24T04:30:12.356Z,28.77
2018-03-24T04:32:39.048Z,30.20
2018-03-24T04:35:05.780Z,30.27
2018-03-24T04:37:32.465Z,30.08
2018-03-24T04:39:59.146Z,29.80
2018-03-24T04:42:25.824Z,31.40
2018-03-24T04:44:52.509Z,28.85
2018-03-24T04:47:19.221Z,29.95
2018-03-24T04:49:45.912Z,33.45
2018-03-24T04:52:12.591Z,30.90
2018-03-24T04:54:39.276Z,32.03
2018-03-24T04:57:05.952Z,33.30
2018-03-24T04:59:32.716Z,31.33
2018-03-24T05:01:59.404Z,31.45
2018-03-24T05:04:26.083Z,28.70
2018-03-24T05:06:52.774Z,31.48
2018-03-24T05:09:19.457Z,32.03
2018-03-24T05:11:46.142Z,33.17
2018-03-24T05:14:12.880Z,29.60
2018-03-24T05:16:39.596Z,31.30
2018-03-24T05:19:06.276Z,32.25
2018-03-24T05:21:32.956Z,31.65
2018-03-24T05:23:59.662Z,31.42
2018-03-24T05:26:26.364Z,30.88
2018-03-24T05:28:53.047Z,30.70
2018-03-24T05:31:19.744Z,31.35
2018-03-24T05:33:46.421Z,31.23
2018-03-24T05:36:13.124Z,33.42
2018-03-24T05:38:39.833Z,32.70
2018-03-24T05:41:06.526Z,32.35
2018-03-24T05:43:33.208Z,33.80
2018-03-24T05:45:59.884Z,31.50
2018-03-24T05:48:26.597Z,33.42
2018-03-24T05:50:53.285Z,33.30
2018-03-24T05:53:20.007Z,30.55
2018-03-24T05:55:46.712Z,32.72
2018-03-24T05:58:13.420Z,30.80
2018-03-24T06:00:40.114Z,31.10
2018-03-24T06:03:06.801Z,33.38
2018-03-24T06:05:33.480Z,32.25
2018-03-24T06:08:00.168Z,29.55
2018-03-24T06:10:26.881Z,31.20
2018-03-24T06:12:53.568Z,30.27
2018-03-24T06:15:20.357Z,32.60
2018-03-24T06:17:47.029Z,30.52
2018-03-24T06:20:13.727Z,31.48
2018-03-24T06:22:40.449Z,32.63
2018-03-24T06:25:07.136Z,32.20
2018-03-24T06:27:33.837Z,30.08
2018-03-24T06:30:00.525Z,31.40
2018-03-24T06:32:27.212Z,32.92
2018-03-24T06:34:53.918Z,31.77
2018-03-24T06:37:22.471Z,33.42
2018-03-24T06:39:49.162Z,32.00
2018-03-24T06:42:15.843Z,33.50
2018-03-24T06:44:42.566Z,31.55
2018-03-24T06:47:09.258Z,33.28
2018-03-24T06:49:35.950Z,29.85
2018-03-24T06:52:02.666Z,31.85
2018-03-24T06:54:29.344Z,29.10
2018-03-24T06:56:56.058Z,29.58
2018-03-24T06:59:22.756Z,31.00
2018-03-24T07:01:49.432Z,31.50
2018-03-24T07:04:16.118Z,32.17
2018-03-24T07:06:42.805Z,29.58
2018-03-24T07:09:09.504Z,30.58
2018-03-24T07:11:36.190Z,30.23
2018-03-24T07:14:02.892Z,31.25
2018-03-24T07:16:29.601Z,28.98
2018-03-24T07:18:56.284Z,30.02
2018-03-24T07:21:22.968Z,28.58
2018-03-24T07:23:49.723Z,30.75
2018-03-24T07:26:16.405Z,30.67
2018-03-24T07:28:43.669Z,28.92
2018-03-24T07:31:10.354Z,30.17
2018-03-24T07:33:37.029Z,28.20
2018-03-24T07:36:03.725Z,30.15
2018-03-24T07:38:30.408Z,30.90
2018-03-24T07:40:57.121Z,31.77
2018-03-24T07:43:23.818Z,28.23
2018-03-24T07:45:50.509Z,30.10
2018-03-24T07:48:17.223Z,32.42
2018-03-24T07:50:43.901Z,28.87
2018-03-24T07:53:10.604Z,28.90
2018-03-24T07:55:37.280Z,31.90
2018-03-24T07:58:03.987Z,31.00
2018-03-24T08:00:30.681Z,29.98
2018-03-24T08:02:57.373Z,31.30
2018-03-24T08:05:24.049Z,31.12
2018-03-24T08:07:50.858Z,32.03
2018-03-24T08:10:17.540Z,29.73
2018-03-24T08:12:44.649Z,31.33
2018-03-24T08:15:11.372Z,33.08
2018-03-24T08:17:38.067Z,31.17
2018-03-24T08:20:04.803Z,30.65
2018-03-24T08:22:31.486Z,31.52
2018-03-24T08:24:58.195Z,32.10
2018-03-24T08:27:24.876Z,29.87
2018-03-24T08:29:51.584Z,32.70
2018-03-24T08:32:18.280Z,32.38
2018-03-24T08:34:44.995Z,30.98
2018-03-24T08:37:11.674Z,31.15
2018-03-24T08:39:38.402Z,32.50
2018-03-24T08:42:05.466Z,32.05
2018-03-24T08:44:32.293Z,32.20
2018-03-24T08:46:58.996Z,33.75
2018-03-24T08:49:25.692Z,31.60
2018-03-24T08:51:52.408Z,31.20
2018-03-24T08:54:19.199Z,33.70
2018-03-24T08:56:47.084Z,34.17
2018-03-24T08:59:13.897Z,34.80
2018-03-24T09:01:40.616Z,34.05
2018-03-24T09:04:07.347Z,31.62
2018-03-24T09:06:34.037Z,32.85
2018-03-24T09:09:00.750Z,32.88
2018-03-24T09:11:27.469Z,31.23
2018-03-24T09:13:54.192Z,33.10
2018-03-24T09:16:20.958Z,35.50
2018-03-24T09:18:47.776Z,33.60
2018-03-24T09:21:14.485Z,37.38
2018-03-24T09:23:41.170Z,35.80
2018-03-24T09:26:07.862Z,35.25
2018-03-24T09:28:34.561Z,35.13
2018-03-24T09:31:01.277Z,34.17
2018-03-24T09:33:27.978Z,36.10
2018-03-24T09:35:54.659Z,36.08
2018-03-24T09:38:21.433Z,35.00
2018-03-24T09:40:48.157Z,34.95
2018-03-24T09:43:14.869Z,35.78
2018-03-24T09:45:41.562Z,35.50
2018-03-24T09:48:08.250Z,31.42
2018-03-24T09:50:34.950Z,33.85
2018-03-24T09:53:01.700Z,35.15
2018-03-24T09:55:28.416Z,32.70
2018-03-24T09:57:55.115Z,32.08
2018-03-24T10:00:21.863Z,37.40
2018-03-24T10:02:48.556Z,38.37
2018-03-24T10:05:15.302Z,36.97
2018-03-24T10:07:41.988Z,33.23
2018-03-24T10:10:08.683Z,34.00
2018-03-24T10:12:35.429Z,33.20
2018-03-24T10:15:02.121Z,34.20
2018-03-24T10:17:28.899Z,34.10
2018-03-24T10:19:55.592Z,35.93
2018-03-24T10:22:37.958Z,30.40
2018-03-24T10:25:04.666Z,29.90
2018-03-24T10:27:32.372Z,28.87
2018-03-24T10:29:59.085Z,28.20
2018-03-24T10:32:25.782Z,29.03
2018-03-24T10:35:06.982Z,21.67
2018-03-24T10:37:39.523Z,27.33
2018-03-24T10:40:06.242Z,27.37
2018-03-24T10:42:32.929Z,29.00
2018-03-24T10:44:59.653Z,29.63
2018-03-24T10:47:26.364Z,29.60
2018-03-24T10:49:53.055Z,26.80
2018-03-24T10:52:19.801Z,23.43
2018-03-24T10:54:46.501Z,25.00
2018-03-24T10:57:13.199Z,25.10
2018-03-24T10:59:39.887Z,22.23
2018-03-24T11:02:06.613Z,24.60
2018-03-24T11:04:33.335Z,23.90
2018-03-24T11:07:00.021Z,21.50
2018-03-24T11:09:26.713Z,19.50
2018-03-24T11:11:53.404Z,20.10
2018-03-24T11:14:20.124Z,20.33
2018-03-24T11:16:46.814Z,20.77
2018-03-24T11:19:13.507Z,20.73
2018-03-24T11:21:40.210Z,21.98
2018-03-24T11:24:06.981Z,20.92
2018-03-24T11:26:33.718Z,18.13
2018-03-24T11:29:00.427Z,15.83
2018-03-24T11:31:27.138Z,16.27
2018-03-24T11:33:53.849Z,16.85
2018-03-24T11:36:20.548Z,15.50
2018-03-24T11:38:47.293Z,13.95
2018-03-24T11:41:13.960Z,13.98
2018-03-24T11:43:40.660Z,13.48
2018-03-24T11:46:07.399Z,11.32
2018-03-24T11:48:34.101Z,10.95
2018-03-24T11:51:00.822Z,12.98
2018-03-24T11:53:33.463Z,15.80
2018-03-24T11:56:00.301Z,14.95
2018-03-24T11:58:27.021Z,16.05
2018-03-24T12:00:53.772Z,19.42
2018-03-24T12:03:20.528Z,21.70
2018-03-24T12:05:47.276Z,21.77
2018-03-24T12:08:14.033Z,20.73
2018-03-24T12:10:40.840Z,21.25
2018-03-24T12:13:07.700Z,17.40
2018-03-24T12:15:34.450Z,16.52
2018-03-24T12:18:01.283Z,15.60
2018-03-24T12:20:28.104Z,15.82
2018-03-24T12:22:55.055Z,14.10
2018-03-24T12:25:21.896Z,16.15
2018-03-24T12:27:48.712Z,15.57
2018-03-24T12:30:15.662Z,14.18
2018-03-24T12:32:42.395Z,15.20
2018-03-24T12:35:09.197Z,16.23
2018-03-24T12:37:35.965Z,16.05
2018-03-24T12:40:02.765Z,15.38
2018-03-24T12:42:29.577Z,13.75
2018-03-24T12:44:56.328Z,12.77
2018-03-24T12:47:23.090Z,14.05
2018-03-24T12:49:49.840Z,13.55
2018-03-24T12:52:16.619Z,13.85
2018-03-24T12:54:43.360Z,13.85
2018-03-24T12:57:10.171Z,13.48
2018-03-24T12:59:36.888Z,15.30
2018-03-24T13:02:03.584Z,16.50
2018-03-24T13:04:30.321Z,16.90
2018-03-24T13:06:57.035Z,16.20
2018-03-24T13:09:23.730Z,17.05
2018-03-24T13:11:50.436Z,18.17
2018-03-24T13:14:17.117Z,16.05
2018-03-24T13:16:43.814Z,16.33
2018-03-24T13:19:10.563Z,16.70
2018-03-24T13:21:37.216Z,16.30
2018-03-24T13:24:04.741Z,15.68
2018-03-24T13:26:31.433Z,16.90
2018-03-24T13:28:58.152Z,17.23
2018-03-24T13:31:24.869Z,16.67
2018-03-24T13:33:51.560Z,15.85
2018-03-24T13:36:18.245Z,15.60
2018-03-24T13:38:44.959Z,13.80
2018-03-24T13:41:11.711Z,15.07
2018-03-24T13:43:38.393Z,15.10
2018-03-24T13:46:05.077Z,14.70
2018-03-24T13:48:31.780Z,15.73
2018-03-24T13:50:58.478Z,14.75
2018-03-24T13:53:25.244Z,16.67
2018-03-24T13:55:51.945Z,17.40
2018-03-24T13:58:18.628Z,15.15
2018-03-24T14:00:45.322Z,16.00
2018-03-24T14:03:12.978Z,15.23
2018-03-24T14:05:39.716Z,14.52
2018-03-24T14:08:06.429Z,16.25
2018-03-24T14:10:33.133Z,16.37
2018-03-24T14:12:59.924Z,15.25
2018-03-24T14:15:26.784Z,14.90
2018-03-24T14:17:53.589Z,16.35
2018-03-24T14:20:20.354Z,17.83
2018-03-24T14:22:47.114Z,16.10
2018-03-24T14:25:13.924Z,17.62
2018-03-24T14:27:40.682Z,17.40
2018-03-24T14:30:07.515Z,17.02
2018-03-24T14:32:34.259Z,17.45
2018-03-24T14:35:01.027Z,17.25
2018-03-24T14:37:27.842Z,19.62
2018-03-24T14:39:54.593Z,19.87
2018-03-24T14:42:21.370Z,19.30
2018-03-24T14:44:48.227Z,18.98
2018-03-24T14:47:14.967Z,18.77
2018-03-24T14:49:41.762Z,19.52
2018-03-24T14:52:08.566Z,15.63
2018-03-24T14:54:35.298Z,16.08
2018-03-24T14:57:02.084Z,18.15
2018-03-24T14:59:28.809Z,16.75
2018-03-24T15:01:55.687Z,16.23
2018-03-24T15:04:22.538Z,15.60
2018-03-24T15:06:49.372Z,15.90
2018-03-24T15:09:16.186Z,16.27
2018-03-24T15:11:42.994Z,15.13
2018-03-24T15:14:09.777Z,15.45
2018-03-24T15:16:36.509Z,16.02
2018-03-24T15:19:03.293Z,14.80
2018-03-24T15:21:30.027Z,14.80
2018-03-24T15:23:56.723Z,15.75
2018-03-24T15:26:23.417Z,15.38
2018-03-24T15:28:56.072Z,16.10
2018-03-24T15:31:28.593Z,17.73
2018-03-24T15:34:01.185Z,16.12
2018-03-24T15:36:33.670Z,15.30
2018-03-24T15:39:00.378Z,16.52
2018-03-24T15:41:27.095Z,15.73
2018-03-24T15:43:53.812Z,16.98
2018-03-24T15:46:20.499Z,16.30
2018-03-24T15:48:47.301Z,16.90
2018-03-24T15:51:14.143Z,16.58
2018-03-24T15:53:40.916Z,15.60
2018-03-24T15:56:07.818Z,17.25
2018-03-24T15:58:34.598Z,16.92
2018-03-24T16:01:01.356Z,17.87
2018-03-24T16:03:28.140Z,15.57
2018-03-24T16:05:54.949Z,18.17
2018-03-24T16:08:21.666Z,17.70
2018-03-24T16:10:48.401Z,18.05
2018-03-24T16:13:15.098Z,19.75
2018-03-24T16:15:41.851Z,16.75
2018-03-24T16:18:08.650Z,18.23
2018-03-24T16:20:35.409Z,17.30
2018-03-24T16:23:02.186Z,18.42
2018-03-24T16:25:29.127Z,17.17
2018-03-24T16:27:55.978Z,18.23
2018-03-24T16:30:22.745Z,17.60
2018-03-24T16:32:50.526Z,16.85
2018-03-24T16:35:17.357Z,18.35
2018-03-24T16:37:44.139Z,18.58
2018-03-24T16:40:10.824Z,17.75
2018-03-24T16:42:37.658Z,18.20
2018-03-24T16:45:04.419Z,17.27
2018-03-24T16:47:31.191Z,17.00
2018-03-24T16:49:58.025Z,17.90
2018-03-24T16:52:24.810Z,18.40
2018-03-24T16:54:51.561Z,18.42
2018-03-24T16:57:18.319Z,20.12
2018-03-24T16:59:45.098Z,18.15
2018-03-24T17:02:11.911Z,19.65
2018-03-24T17:04:38.654Z,18.98
2018-03-24T17:07:05.436Z,19.20
2018-03-24T17:09:32.172Z,18.90
2018-03-24T17:11:58.890Z,17.50
2018-03-24T17:14:25.722Z,19.37
2018-03-24T17:16:52.493Z,18.05
2018-03-24T17:19:19.246Z,15.93
2018-03-24T17:21:46.031Z,18.83
2018-03-24T17:24:12.798Z,18.90
2018-03-24T17:26:39.655Z,18.80
2018-03-24T17:29:06.396Z,17.48
2018-03-24T17:31:33.189Z,18.30
2018-03-24T17:33:59.934Z,19.52
2018-03-24T17:36:26.745Z,18.90
2018-03-24T17:38:53.533Z,18.15
2018-03-24T17:41:20.393Z,20.75
2018-03-24T17:43:47.118Z,19.45
2018-03-24T17:46:13.855Z,18.95
2018-03-24T17:48:40.786Z,18.33
2018-03-24T17:51:07.588Z,19.00
2018-03-24T17:53:34.364Z,18.80
2018-03-24T17:56:01.072Z,18.30
2018-03-24T17:58:27.759Z,19.95
2018-03-24T18:00:54.453Z,21.85
2018-03-24T18:03:21.270Z,21.12
2018-03-24T18:05:48.099Z,20.88
2018-03-24T18:08:14.827Z,19.95
2018-03-24T18:10:41.613Z,21.00
2018-03-24T18:13:08.456Z,20.45
2018-03-24T18:15:35.215Z,19.20
2018-03-24T18:18:02.023Z,20.17
2018-03-24T18:20:28.821Z,17.42
2018-03-24T18:22:55.599Z,20.23
2018-03-24T18:25:22.384Z,19.75
2018-03-24T18:27:49.165Z,19.37
2018-03-24T18:30:16.012Z,19.33
2018-03-24T18:32:42.739Z,19.17
2018-03-24T18:35:09.505Z,19.27
2018-03-24T18:37:36.285Z,19.00
2018-03-24T18:40:03.130Z,18.23
2018-03-24T18:42:29.920Z,17.25
2018-03-24T18:44:56.650Z,18.37
2018-03-24T18:47:23.454Z,18.90
2018-03-24T18:49:50.154Z,19.60
2018-03-24T18:52:16.839Z,18.77
2018-03-24T18:54:43.525Z,20.08
2018-03-24T18:57:10.249Z,18.35
2018-03-24T18:59:36.928Z,18.50
2018-03-24T19:02:03.617Z,19.77
2018-03-24T19:04:30.331Z,18.77
2018-03-24T19:06:57.033Z,21.05
2018-03-24T19:09:23.735Z,20.02
2018-03-24T19:11:50.475Z,19.87
2018-03-24T19:14:17.164Z,19.73
2018-03-24T19:16:43.894Z,19.70
2018-03-24T19:19:10.836Z,19.62
2018-03-24T19:21:37.626Z,20.55
2018-03-24T19:24:04.477Z,21.00
2018-03-24T19:26:31.232Z,20.60
2018-03-24T19:28:57.970Z,20.42
2018-03-24T19:31:24.744Z,19.87
2018-03-24T19:33:51.584Z,18.62
2018-03-24T19:36:18.335Z,20.35
2018-03-24T19:38:45.104Z,19.87
2018-03-24T19:41:11.891Z,17.77
2018-03-24T19:43:38.792Z,19.52
2018-03-24T19:46:05.510Z,19.50
2018-03-24T19:48:32.239Z,16.98
2018-03-24T19:50:58.975Z,18.58
2018-03-24T19:53:25.747Z,19.55
2018-03-24T19:55:52.462Z,18.77
2018-03-24T19:58:19.286Z,18.67
2018-03-24T20:00:45.987Z,18.15
2018-03-24T20:03:12.679Z,18.12
2018-03-24T20:05:39.398Z,17.50
2018-03-24T20:08:06.099Z,17.50
2018-03-24T20:10:32.794Z,17.52
2018-03-24T20:12:59.488Z,16.70
2018-03-24T20:15:26.229Z,16.95
2018-03-24T20:17:52.969Z,17.52
2018-03-24T20:20:19.658Z,17.48
2018-03-24T20:22:46.395Z,17.17
2018-03-24T20:25:13.109Z,16.65
2018-03-24T20:27:39.799Z,17.37
2018-03-24T20:30:06.485Z,17.48
2018-03-24T20:32:33.240Z,15.82
2018-03-24T20:34:59.948Z,15.70
2018-03-24T20:37:26.632Z,16.33
2018-03-24T20:39:53.466Z,16.85
2018-03-24T20:42:20.215Z,16.90
2018-03-24T20:44:46.887Z,16.95
2018-03-24T20:47:13.596Z,17.27
2018-03-24T20:49:40.287Z,16.52
2018-03-24T20:52:06.985Z,16.45
2018-03-24T20:54:33.677Z,15.82
2018-03-24T20:57:00.361Z,17.50
2018-03-24T20:59:27.119Z,16.92
2018-03-24T21:01:53.828Z,15.90
2018-03-24T21:04:20.513Z,16.08
2018-03-24T21:06:47.215Z,16.75
2018-03-24T21:09:13.889Z,17.35
2018-03-24T21:11:40.583Z,16.08
2018-03-24T21:14:07.278Z,16.17
2018-03-24T21:16:33.998Z,16.98
2018-03-24T21:19:00.682Z,17.05
2018-03-24T21:21:27.382Z,17.10
2018-03-24T21:23:54.082Z,17.40
2018-03-24T21:26:20.775Z,17.10
2018-03-24T21:28:47.471Z,17.08
2018-03-24T21:31:14.194Z,16.60
2018-03-24T21:33:40.905Z,17.20
2018-03-24T21:36:07.604Z,16.83
2018-03-24T21:38:34.325Z,20.02
2018-03-24T21:41:01.034Z,18.12
2018-03-24T21:43:27.845Z,19.33
2018-03-24T21:45:54.732Z,19.48
2018-03-24T21:48:21.416Z,18.37
2018-03-24T21:50:48.156Z,19.02
2018-03-24T21:53:14.841Z,18.45
2018-03-24T21:55:41.560Z,18.87
2018-03-24T21:58:08.241Z,20.98
2018-03-24T22:00:35.038Z,17.12
2018-03-24T22:03:01.728Z,16.60
2018-03-24T22:05:28.421Z,17.05
2018-03-24T22:07:55.124Z,16.25
2018-03-24T22:10:21.796Z,18.67
2018-03-24T22:12:48.504Z,15.85
2018-03-24T22:15:15.262Z,17.17
2018-03-24T22:17:41.948Z,17.48
2018-03-24T22:20:08.781Z,17.12
2018-03-24T22:22:35.472Z,17.45
2018-03-24T22:25:02.171Z,17.80
2018-03-24T22:27:28.861Z,17.35
2018-03-24T22:29:56.378Z,20.12
2018-03-24T22:32:23.076Z,18.02
2018-03-24T22:34:49.765Z,18.73
2018-03-24T22:37:16.450Z,19.25
2018-03-24T22:39:43.161Z,17.98
2018-03-24T22:42:09.893Z,18.87
2018-03-24T22:44:36.591Z,17.87
2018-03-24T22:47:03.288Z,17.62
2018-03-24T22:49:30.007Z,16.27
2018-03-24T22:51:56.699Z,19.00
2018-03-24T22:54:24.331Z,18.60
2018-03-24T22:56:51.057Z,17.95
2018-03-24T22:59:17.807Z,18.40
2018-03-24T23:01:44.587Z,20.40
2018-03-24T23:04:11.340Z,18.10
2018-03-24T23:06:38.200Z,18.08
2018-03-24T23:09:05.044Z,16.70
2018-03-24T23:11:31.840Z,19.33
2018-03-24T23:13:58.663Z,19.70
2018-03-24T23:16:25.407Z,19.00
2018-03-24T23:18:52.242Z,19.42
2018-03-24T23:21:19.174Z,18.70
2018-03-24T23:23:45.873Z,18.10
2018-03-24T23:26:12.703Z,18.55
2018-03-24T23:28:39.436Z,19.35
2018-03-24T23:31:06.244Z,19.85
2018-03-24T23:33:32.959Z,19.25
2018-03-24T23:35:59.824Z,18.70
2018-03-24T23:38:26.620Z,18.73
2018-03-24T23:40:53.370Z,18.87
2018-03-24T23:43:20.104Z,18.45
2018-03-24T23:45:46.877Z,19.90
2018-03-24T23:48:13.665Z,20.20
2018-03-24T23:50:40.475Z,18.80
2018-03-24T23:53:07.302Z,21.58
2018-03-24T23:55:34.043Z,19.40
2018-03-24T23:58:00.815Z,20.15
